createdAt,value
2016-10-26T00:00:36.063Z,1014.79
2016-10-26T00:01:36.104Z,1014.78
2016-10-26T00:02:36.348Z,1014.76
2016-10-26T00:03:36.117Z,1014.78
2016-10-26T00:04:36.134Z,1014.78
2016-10-26T00:05:36.244Z,1014.75
2016-10-26T00:06:36.248Z,1014.77
2016-10-26T00:07:36.257Z,1014.79
2016-10-26T00:08:36.290Z,1014.81
2016-10-26T00:09:36.290Z,1014.79
2016-10-26T00:10:36.235Z,1014.8
2016-10-26T00:11:36.253Z,1014.77
2016-10-26T00:12:36.421Z,1014.82
2016-10-26T00:13:36.289Z,1014.8
2016-10-26T00:14:36.304Z,1014.8
2016-10-26T00:15:36.332Z,1014.84
2016-10-26T00:16:36.339Z,1014.8
2016-10-26T00:17:36.358Z,1014.81
2016-10-26T00:18:36.374Z,1014.83
2016-10-26T00:19:36.392Z,1014.84
2016-10-26T00:20:36.409Z,1014.85
2016-10-26T00:21:36.426Z,1014.87
2016-10-26T00:22:36.593Z,1014.93
2016-10-26T00:23:36.468Z,1014.88
2016-10-26T00:24:36.478Z,1014.93
2016-10-26T00:25:36.494Z,1014.95
2016-10-26T00:26:36.512Z,1014.96
2016-10-26T00:27:36.529Z,1014.96
2016-10-26T00:28:36.547Z,1015
2016-10-26T00:29:36.564Z,1014.95
2016-10-26T00:30:36.582Z,1015.02
2016-10-26T00:31:36.599Z,1015.01
2016-10-26T00:32:36.616Z,1014.97
2016-10-26T00:33:36.633Z,1014.98
2016-10-26T00:34:36.651Z,1014.95
2016-10-26T00:35:36.668Z,1014.97
2016-10-26T00:36:36.685Z,1014.96
2016-10-26T00:37:36.702Z,1015.03
2016-10-26T00:38:36.721Z,1014.98
2016-10-26T00:39:36.738Z,1014.98
2016-10-26T00:40:36.754Z,1014.94
2016-10-26T00:41:36.774Z,1014.98
2016-10-26T00:42:36.791Z,1014.99
2016-10-26T00:43:36.809Z,1014.98
2016-10-26T00:44:36.824Z,1015.01
2016-10-26T00:45:36.843Z,1015.02
2016-10-26T00:46:36.860Z,1015.02
2016-10-26T00:47:36.877Z,1015.04
2016-10-26T00:48:36.894Z,1015.04
2016-10-26T00:49:36.913Z,1015.02
2016-10-26T00:50:36.928Z,1015.04
2016-10-26T00:51:36.949Z,1015.03
2016-10-26T00:52:36.968Z,1015.06
2016-10-26T00:53:36.987Z,1015.03
2016-10-26T00:54:37.000Z,1015.09
2016-10-26T00:55:37.018Z,1015.05
2016-10-26T00:56:37.039Z,1015.08
2016-10-26T00:57:37.056Z,1015.05
2016-10-26T00:58:37.070Z,1015.04
2016-10-26T00:59:37.091Z,1015.09
2016-10-26T01:00:37.106Z,1015.07
2016-10-26T01:01:37.127Z,1015.08
2016-10-26T01:02:37.142Z,1015.05
2016-10-26T01:03:37.159Z,1015.11
2016-10-26T01:04:37.177Z,1015.07
2016-10-26T01:05:37.193Z,1015.05
2016-10-26T01:06:37.210Z,1015.07
2016-10-26T01:07:37.226Z,1015.09
2016-10-26T01:08:37.245Z,1015.09
2016-10-26T01:09:37.259Z,1015.09
2016-10-26T01:10:37.278Z,1015.12
2016-10-26T01:11:37.299Z,1015.13
2016-10-26T01:12:37.311Z,1015.1
2016-10-26T01:13:37.328Z,1015.14
2016-10-26T01:14:37.349Z,1015.09
2016-10-26T01:15:37.366Z,1015.14
2016-10-26T01:16:37.383Z,1015.14
2016-10-26T01:17:37.399Z,1015.12
2016-10-26T01:18:37.416Z,1015.09
2016-10-26T01:19:37.432Z,1015.1
2016-10-26T01:20:37.452Z,1015.13
2016-10-26T01:21:37.466Z,1015.11
2016-10-26T01:22:37.483Z,1015.07
2016-10-26T01:23:37.502Z,1015.12
2016-10-26T01:24:37.521Z,1015.11
2016-10-26T01:25:37.539Z,1015.13
2016-10-26T01:26:37.553Z,1015.07
2016-10-26T01:27:37.571Z,1015.07
2016-10-26T01:28:37.587Z,1015.09
2016-10-26T01:29:37.604Z,1015.11
2016-10-26T01:30:37.631Z,1015.08
2016-10-26T01:31:37.638Z,1015.09
2016-10-26T01:32:37.660Z,1015.08
2016-10-26T01:33:37.676Z,1015.14
2016-10-26T01:34:37.693Z,1015.14
2016-10-26T01:35:37.708Z,1015.15
2016-10-26T01:36:37.727Z,1015.13
2016-10-26T01:37:37.745Z,1015.13
2016-10-26T01:38:37.759Z,1015.14
2016-10-26T01:39:37.775Z,1015.11
2016-10-26T01:40:37.796Z,1015.15
2016-10-26T01:41:37.813Z,1015.14
2016-10-26T01:42:37.827Z,1015.13
2016-10-26T01:43:37.844Z,1015.11
2016-10-26T01:44:37.862Z,1015.13
2016-10-26T01:45:37.882Z,1015.13
2016-10-26T01:46:37.898Z,1015.15
2016-10-26T01:47:37.916Z,1015.16
2016-10-26T01:48:37.933Z,1015.15
2016-10-26T01:49:37.947Z,1015.17
2016-10-26T01:50:37.967Z,1015.17
2016-10-26T01:51:37.982Z,1015.16
2016-10-26T01:52:38.001Z,1015.22
2016-10-26T01:53:38.021Z,1015.17
2016-10-26T01:54:38.068Z,1015.22
2016-10-26T01:55:38.053Z,1015.25
2016-10-26T01:56:38.067Z,1015.23
2016-10-26T01:57:38.084Z,1015.19
2016-10-26T01:58:38.105Z,1015.27
2016-10-26T01:59:38.120Z,1015.25
2016-10-26T02:00:38.144Z,1015.23
2016-10-26T02:01:38.171Z,1015.26
2016-10-26T02:02:38.237Z,1015.25
2016-10-26T02:03:38.191Z,1015.25
2016-10-26T02:04:38.203Z,1015.24
2016-10-26T02:05:38.221Z,1015.25
2016-10-26T02:06:38.242Z,1015.25
2016-10-26T02:07:38.318Z,1015.25
2016-10-26T02:08:38.274Z,1015.26
2016-10-26T02:09:38.290Z,1015.33
2016-10-26T02:10:38.307Z,1015.32
2016-10-26T02:11:38.326Z,1015.33
2016-10-26T02:12:38.342Z,1015.33
2016-10-26T02:13:38.362Z,1015.33
2016-10-26T02:14:38.377Z,1015.32
2016-10-26T02:15:38.393Z,1015.35
2016-10-26T02:16:38.410Z,1015.33
2016-10-26T02:17:38.430Z,1015.38
2016-10-26T02:18:38.444Z,1015.35
2016-10-26T02:19:38.464Z,1015.38
2016-10-26T02:20:38.482Z,1015.36
2016-10-26T02:21:38.499Z,1015.37
2016-10-26T02:22:38.513Z,1015.35
2016-10-26T02:23:38.533Z,1015.39
2016-10-26T02:24:38.548Z,1015.4
2016-10-26T02:25:38.568Z,1015.39
2016-10-26T02:26:38.646Z,1015.43
2016-10-26T02:27:38.600Z,1015.37
2016-10-26T02:28:38.616Z,1015.4
2016-10-26T02:29:38.634Z,1015.41
2016-10-26T02:30:38.759Z,1015.39
2016-10-26T02:31:38.763Z,1015.41
2016-10-26T02:32:38.771Z,1015.42
2016-10-26T02:33:38.807Z,1015.4
2016-10-26T02:34:38.817Z,1015.38
2016-10-26T02:35:38.814Z,1015.43
2016-10-26T02:36:38.753Z,1015.43
2016-10-26T02:37:38.774Z,1015.42
2016-10-26T02:38:38.793Z,1015.41
2016-10-26T02:39:38.806Z,1015.47
2016-10-26T02:40:38.823Z,1015.45
2016-10-26T02:41:38.839Z,1015.44
2016-10-26T02:42:38.859Z,1015.45
2016-10-26T02:43:38.875Z,1015.45
2016-10-26T02:44:38.893Z,1015.46
2016-10-26T02:45:38.910Z,1015.47
2016-10-26T02:46:38.925Z,1015.46
2016-10-26T02:47:38.944Z,1015.46
2016-10-26T02:48:38.962Z,1015.44
2016-10-26T02:49:39.072Z,1015.48
2016-10-26T02:50:38.995Z,1015.51
2016-10-26T02:51:39.013Z,1015.5
2016-10-26T02:52:39.027Z,1015.51
2016-10-26T02:53:39.047Z,1015.48
2016-10-26T02:54:39.064Z,1015.49
2016-10-26T02:55:39.085Z,1015.53
2016-10-26T02:56:39.098Z,1015.49
2016-10-26T02:57:39.119Z,1015.49
2016-10-26T02:58:39.134Z,1015.52
2016-10-26T02:59:39.148Z,1015.51
2016-10-26T03:00:39.163Z,1015.51
2016-10-26T03:01:39.182Z,1015.52
2016-10-26T03:02:39.197Z,1015.54
2016-10-26T03:03:39.216Z,1015.52
2016-10-26T03:04:39.234Z,1015.56
2016-10-26T03:05:39.252Z,1015.52
2016-10-26T03:06:39.267Z,1015.51
2016-10-26T03:07:39.286Z,1015.52
2016-10-26T03:08:39.301Z,1015.49
2016-10-26T03:09:39.317Z,1015.5
2016-10-26T03:10:39.334Z,1015.47
2016-10-26T03:11:39.355Z,1015.49
2016-10-26T03:12:39.370Z,1015.48
2016-10-26T03:13:39.384Z,1015.49
2016-10-26T03:14:39.402Z,1015.47
2016-10-26T03:15:39.420Z,1015.48
2016-10-26T03:16:39.439Z,1015.49
2016-10-26T03:17:39.452Z,1015.51
2016-10-26T03:18:39.473Z,1015.5
2016-10-26T03:19:39.487Z,1015.5
2016-10-26T03:20:39.505Z,1015.48
2016-10-26T03:21:39.524Z,1015.53
2016-10-26T03:22:39.542Z,1015.5
2016-10-26T03:23:39.555Z,1015.52
2016-10-26T03:24:39.572Z,1015.52
2016-10-26T03:25:39.594Z,1015.55
2016-10-26T03:26:39.608Z,1015.57
2016-10-26T03:27:39.628Z,1015.51
2016-10-26T03:28:39.642Z,1015.55
2016-10-26T03:29:39.657Z,1015.51
2016-10-26T03:30:39.677Z,1015.53
2016-10-26T03:31:39.692Z,1015.54
2016-10-26T03:32:39.711Z,1015.51
2016-10-26T03:33:39.727Z,1015.53
2016-10-26T03:34:39.745Z,1015.5
2016-10-26T03:35:39.761Z,1015.48
2016-10-26T03:36:39.780Z,1015.53
2016-10-26T03:37:39.795Z,1015.5
2016-10-26T03:38:39.964Z,1015.52
2016-10-26T03:39:39.826Z,1015.51
2016-10-26T03:40:39.846Z,1015.49
2016-10-26T03:41:39.862Z,1015.48
2016-10-26T03:42:39.880Z,1015.48
2016-10-26T03:43:39.898Z,1015.49
2016-10-26T03:44:39.914Z,1015.5
2016-10-26T03:45:39.931Z,1015.53
2016-10-26T03:46:39.948Z,1015.5
2016-10-26T03:47:39.964Z,1015.5
2016-10-26T03:48:40.130Z,1015.5
2016-10-26T03:49:39.997Z,1015.49
2016-10-26T03:50:40.016Z,1015.54
2016-10-26T03:51:40.032Z,1015.5
2016-10-26T03:52:40.049Z,1015.5
2016-10-26T03:53:40.064Z,1015.53
2016-10-26T03:54:40.085Z,1015.53
2016-10-26T03:55:40.102Z,1015.57
2016-10-26T03:56:40.116Z,1015.58
2016-10-26T03:57:40.133Z,1015.62
2016-10-26T03:58:40.151Z,1015.61
2016-10-26T03:59:40.170Z,1015.65
2016-10-26T04:00:40.183Z,1015.59
2016-10-26T04:01:40.202Z,1015.65
2016-10-26T04:02:40.221Z,1015.62
2016-10-26T04:03:40.236Z,1015.64
2016-10-26T04:04:40.252Z,1015.71
2016-10-26T04:05:40.271Z,1015.67
2016-10-26T04:06:40.289Z,1015.71
2016-10-26T04:07:40.305Z,1015.77
2016-10-26T04:08:40.319Z,1015.74
2016-10-26T04:09:40.337Z,1015.76
2016-10-26T04:10:40.356Z,1015.83
2016-10-26T04:11:40.370Z,1015.81
2016-10-26T04:12:40.387Z,1015.87
2016-10-26T04:13:40.407Z,1015.84
2016-10-26T04:14:40.427Z,1015.85
2016-10-26T04:15:40.437Z,1015.84
2016-10-26T04:16:40.455Z,1015.89
2016-10-26T04:17:40.475Z,1015.85
2016-10-26T04:18:40.493Z,1015.84
2016-10-26T04:19:40.509Z,1015.83
2016-10-26T04:20:40.523Z,1015.79
2016-10-26T04:21:40.544Z,1015.78
2016-10-26T04:22:40.558Z,1015.8
2016-10-26T04:23:40.577Z,1015.76
2016-10-26T04:24:40.593Z,1015.75
2016-10-26T04:25:40.607Z,1015.77
2016-10-26T04:26:40.625Z,1015.75
2016-10-26T04:27:40.644Z,1015.79
2016-10-26T04:28:40.660Z,1015.73
2016-10-26T04:29:40.677Z,1015.76
2016-10-26T04:30:40.692Z,1015.75
2016-10-26T04:31:40.710Z,1015.75
2016-10-26T04:32:40.729Z,1015.73
2016-10-26T04:33:40.745Z,1015.73
2016-10-26T04:34:40.798Z,1015.8
2016-10-26T04:35:40.812Z,1015.73
2016-10-26T04:36:40.819Z,1015.76
2016-10-26T04:37:40.821Z,1015.75
2016-10-26T04:38:40.828Z,1015.76
2016-10-26T04:39:40.850Z,1015.8
2016-10-26T04:40:40.862Z,1015.8
2016-10-26T04:41:40.882Z,1015.81
2016-10-26T04:42:40.896Z,1015.82
2016-10-26T04:43:40.913Z,1015.8
2016-10-26T04:44:40.929Z,1015.85
2016-10-26T04:45:40.949Z,1015.88
2016-10-26T04:46:40.963Z,1015.86
2016-10-26T04:47:40.984Z,1015.89
2016-10-26T04:48:41.000Z,1015.9
2016-10-26T04:49:41.017Z,1015.92
2016-10-26T04:50:41.031Z,1015.91
2016-10-26T04:51:41.051Z,1015.91
2016-10-26T04:52:41.067Z,1015.93
2016-10-26T04:53:41.085Z,1015.9
2016-10-26T04:54:41.099Z,1015.89
2016-10-26T04:55:41.119Z,1015.92
2016-10-26T04:56:41.135Z,1015.94
2016-10-26T04:57:41.151Z,1015.93
2016-10-26T04:58:41.170Z,1015.95
2016-10-26T04:59:41.183Z,1015.99
2016-10-26T05:00:41.208Z,1015.96
2016-10-26T05:01:41.221Z,1016
2016-10-26T05:02:41.235Z,1015.98
2016-10-26T05:03:41.255Z,1015.95
2016-10-26T05:04:41.268Z,1015.97
2016-10-26T05:05:41.285Z,1015.97
2016-10-26T05:06:41.301Z,1015.97
2016-10-26T05:07:41.322Z,1015.98
2016-10-26T05:08:41.339Z,1015.92
2016-10-26T05:09:41.353Z,1015.94
2016-10-26T05:10:41.369Z,1015.94
2016-10-26T05:11:41.391Z,1015.9
2016-10-26T05:12:41.404Z,1015.93
2016-10-26T05:13:41.427Z,1015.91
2016-10-26T05:14:41.437Z,1015.92
2016-10-26T05:15:41.457Z,1015.92
2016-10-26T05:16:41.474Z,1015.9
2016-10-26T05:17:41.490Z,1015.9
2016-10-26T05:18:41.509Z,1015.91
2016-10-26T05:19:41.525Z,1015.89
2016-10-26T05:20:41.542Z,1015.89
2016-10-26T05:21:41.555Z,1015.9
2016-10-26T05:22:41.577Z,1015.88
2016-10-26T05:23:41.591Z,1015.9
2016-10-26T05:24:41.609Z,1015.88
2016-10-26T05:25:41.624Z,1015.92
2016-10-26T05:26:41.644Z,1015.9
2016-10-26T05:27:41.660Z,1015.91
2016-10-26T05:28:41.677Z,1015.88
2016-10-26T05:29:41.695Z,1015.94
2016-10-26T05:30:41.711Z,1015.93
2016-10-26T05:31:41.727Z,1015.92
2016-10-26T05:32:41.744Z,1015.94
2016-10-26T05:33:41.760Z,1015.97
2016-10-26T05:34:41.782Z,1015.95
2016-10-26T05:35:41.795Z,1015.94
2016-10-26T05:36:41.812Z,1015.95
2016-10-26T05:37:41.830Z,1015.93
2016-10-26T05:38:41.847Z,1015.93
2016-10-26T05:39:41.861Z,1015.96
2016-10-26T05:40:41.878Z,1015.95
2016-10-26T05:41:41.898Z,1015.96
2016-10-26T05:42:41.915Z,1015.95
2016-10-26T05:43:41.931Z,1015.97
2016-10-26T05:44:42.048Z,1015.99
2016-10-26T05:45:41.965Z,1015.99
2016-10-26T05:46:41.981Z,1015.98
2016-10-26T05:47:42.003Z,1016.01
2016-10-26T05:48:42.013Z,1016.01
2016-10-26T05:49:42.081Z,1016.03
2016-10-26T05:50:42.045Z,1016.05
2016-10-26T05:51:42.068Z,1016.05
2016-10-26T05:52:42.083Z,1016.07
2016-10-26T05:53:42.098Z,1016.02
2016-10-26T05:54:42.117Z,1016.03
2016-10-26T05:55:42.132Z,1016.05
2016-10-26T05:56:42.147Z,1016.05
2016-10-26T05:57:42.163Z,1016.09
2016-10-26T05:58:42.184Z,1016.12
2016-10-26T05:59:42.198Z,1016.12
2016-10-26T06:00:42.219Z,1016.14
2016-10-26T06:01:42.233Z,1016.15
2016-10-26T06:02:42.251Z,1016.19
2016-10-26T06:03:42.267Z,1016.19
2016-10-26T06:04:42.286Z,1016.22
2016-10-26T06:05:42.298Z,1016.21
2016-10-26T06:06:42.318Z,1016.25
2016-10-26T06:07:42.335Z,1016.26
2016-10-26T06:08:42.501Z,1016.32
2016-10-26T06:09:42.365Z,1016.32
2016-10-26T06:10:42.384Z,1016.3
2016-10-26T06:11:42.399Z,1016.34
2016-10-26T06:12:42.418Z,1016.39
2016-10-26T06:13:42.435Z,1016.37
2016-10-26T06:14:42.451Z,1016.4
2016-10-26T06:15:42.470Z,1016.39
2016-10-26T06:16:42.486Z,1016.44
2016-10-26T06:17:42.503Z,1016.46
2016-10-26T06:18:42.667Z,1016.51
2016-10-26T06:19:42.536Z,1016.49
2016-10-26T06:20:42.551Z,1016.44
2016-10-26T06:21:42.567Z,1016.46
2016-10-26T06:22:42.585Z,1016.46
2016-10-26T06:23:42.602Z,1016.49
2016-10-26T06:24:42.622Z,1016.5
2016-10-26T06:25:42.634Z,1016.52
2016-10-26T06:26:42.655Z,1016.46
2016-10-26T06:27:42.675Z,1016.49
2016-10-26T06:28:42.834Z,1016.47
2016-10-26T06:29:42.701Z,1016.49
2016-10-26T06:30:42.717Z,1016.49
2016-10-26T06:31:42.737Z,1016.5
2016-10-26T06:32:42.751Z,1016.49
2016-10-26T06:33:42.770Z,1016.51
2016-10-26T06:34:42.786Z,1016.5
2016-10-26T06:35:42.804Z,1016.52
2016-10-26T06:36:42.818Z,1016.45
2016-10-26T06:37:42.839Z,1016.48
2016-10-26T06:38:43.004Z,1016.51
2016-10-26T06:39:42.868Z,1016.46
2016-10-26T06:40:42.890Z,1016.49
2016-10-26T06:41:42.909Z,1016.47
2016-10-26T06:42:42.917Z,1016.51
2016-10-26T06:43:42.934Z,1016.54
2016-10-26T06:44:42.952Z,1016.55
2016-10-26T06:45:42.970Z,1016.55
2016-10-26T06:46:42.985Z,1016.56
2016-10-26T06:47:43.001Z,1016.54
2016-10-26T06:48:43.169Z,1016.57
2016-10-26T06:49:43.036Z,1016.56
2016-10-26T06:50:43.051Z,1016.57
2016-10-26T06:51:43.071Z,1016.61
2016-10-26T06:52:43.086Z,1016.65
2016-10-26T06:53:43.100Z,1016.63
2016-10-26T06:54:43.120Z,1016.61
2016-10-26T06:55:43.135Z,1016.62
2016-10-26T06:56:43.152Z,1016.65
2016-10-26T06:57:43.170Z,1016.62
2016-10-26T06:58:43.184Z,1016.59
2016-10-26T06:59:43.201Z,1016.6
2016-10-26T07:00:43.221Z,1016.6
2016-10-26T07:01:43.235Z,1016.58
2016-10-26T07:02:43.251Z,1016.61
2016-10-26T07:03:43.270Z,1016.62
2016-10-26T07:04:43.286Z,1016.59
2016-10-26T07:05:43.301Z,1016.61
2016-10-26T07:06:43.321Z,1016.61
2016-10-26T07:07:43.334Z,1016.57
2016-10-26T07:08:43.657Z,1016.57
2016-10-26T07:09:43.466Z,1016.62
2016-10-26T07:10:43.383Z,1016.61
2016-10-26T07:11:43.400Z,1016.58
2016-10-26T07:12:43.418Z,1016.62
2016-10-26T07:13:43.584Z,1016.61
2016-10-26T07:14:43.452Z,1016.6
2016-10-26T07:15:43.467Z,1016.59
2016-10-26T07:16:43.483Z,1016.59
2016-10-26T07:17:43.502Z,1016.61
2016-10-26T07:18:43.519Z,1016.63
2016-10-26T07:19:43.533Z,1016.59
2016-10-26T07:20:43.553Z,1016.65
2016-10-26T07:21:43.571Z,1016.66
2016-10-26T07:22:43.583Z,1016.66
2016-10-26T07:23:43.602Z,1016.69
2016-10-26T07:24:43.619Z,1016.72
2016-10-26T07:25:43.634Z,1016.72
2016-10-26T07:26:43.649Z,1016.71
2016-10-26T07:27:43.666Z,1016.7
2016-10-26T07:28:43.833Z,1016.72
2016-10-26T07:29:43.699Z,1016.78
2016-10-26T07:31:43.735Z,1016.76
2016-10-26T07:32:43.749Z,1016.8
2016-10-26T07:33:43.768Z,1016.8
2016-10-26T07:34:43.785Z,1016.79
2016-10-26T07:35:43.802Z,1016.82
2016-10-26T07:36:43.815Z,1016.85
2016-10-26T07:37:43.832Z,1016.85
2016-10-26T07:38:44.001Z,1016.88
2016-10-26T07:39:43.871Z,1016.88
2016-10-26T07:40:43.882Z,1016.92
2016-10-26T07:41:43.899Z,1016.93
2016-10-26T07:42:43.915Z,1016.92
2016-10-26T07:43:43.944Z,1016.92
2016-10-26T07:44:43.951Z,1016.91
2016-10-26T07:45:43.965Z,1016.92
2016-10-26T07:46:43.982Z,1016.91
2016-10-26T07:47:44.001Z,1016.9
2016-10-26T07:48:44.014Z,1016.88
2016-10-26T07:49:44.031Z,1016.89
2016-10-26T07:50:44.051Z,1016.92
2016-10-26T07:51:44.067Z,1016.92
2016-10-26T07:52:44.084Z,1016.94
2016-10-26T07:53:44.101Z,1016.91
2016-10-26T07:54:44.119Z,1016.96
2016-10-26T07:55:44.133Z,1016.99
2016-10-26T07:56:44.150Z,1017.01
2016-10-26T07:57:44.167Z,1017.01
2016-10-26T07:58:44.181Z,1016.99
2016-10-26T07:59:44.201Z,1016.96
2016-10-26T08:00:44.217Z,1016.99
2016-10-26T08:01:44.232Z,1016.96
2016-10-26T08:02:44.248Z,1016.98
2016-10-26T08:03:44.268Z,1016.94
2016-10-26T08:04:44.285Z,1016.97
2016-10-26T08:05:44.297Z,1016.98
2016-10-26T08:06:44.315Z,1016.98
2016-10-26T08:07:44.335Z,1016.99
2016-10-26T08:08:44.349Z,1016.98
2016-10-26T08:09:44.366Z,1016.98
2016-10-26T08:10:44.382Z,1016.97
2016-10-26T08:11:44.399Z,1016.96
2016-10-26T08:12:44.416Z,1016.96
2016-10-26T08:13:44.435Z,1016.98
2016-10-26T08:14:44.459Z,1016.96
2016-10-26T08:15:44.466Z,1016.97
2016-10-26T08:16:44.486Z,1016.98
2016-10-26T08:17:44.502Z,1017.02
2016-10-26T08:18:44.519Z,1017.02
2016-10-26T08:19:44.536Z,1017.1
2016-10-26T08:20:44.563Z,1017.11
2016-10-26T08:21:44.570Z,1017.11
2016-10-26T08:22:44.588Z,1017.08
2016-10-26T08:23:44.601Z,1017.11
2016-10-26T08:24:44.626Z,1017.1
2016-10-26T08:25:44.638Z,1017.12
2016-10-26T08:26:44.656Z,1017.14
2016-10-26T08:27:44.668Z,1017.12
2016-10-26T08:28:44.688Z,1017.09
2016-10-26T08:29:44.706Z,1017.14
2016-10-26T08:30:44.722Z,1017.19
2016-10-26T08:31:44.739Z,1017.13
2016-10-26T08:32:44.753Z,1017.17
2016-10-26T08:33:44.773Z,1017.21
2016-10-26T08:34:44.788Z,1017.19
2016-10-26T08:35:44.806Z,1017.21
2016-10-26T08:36:44.825Z,1017.19
2016-10-26T08:37:44.840Z,1017.22
2016-10-26T08:38:44.859Z,1017.19
2016-10-26T08:39:44.874Z,1017.22
2016-10-26T08:40:44.892Z,1017.22
2016-10-26T08:41:44.912Z,1017.21
2016-10-26T08:42:44.929Z,1017.22
2016-10-26T08:43:44.945Z,1017.18
2016-10-26T08:44:44.959Z,1017.23
2016-10-26T08:45:44.976Z,1017.19
2016-10-26T08:46:44.999Z,1017.22
2016-10-26T08:47:45.013Z,1017.21
2016-10-26T08:48:45.030Z,1017.18
2016-10-26T08:49:45.044Z,1017.16
2016-10-26T08:50:45.064Z,1017.17
2016-10-26T08:51:45.081Z,1017.12
2016-10-26T08:52:45.099Z,1017.18
2016-10-26T08:53:45.116Z,1017.22
2016-10-26T08:54:45.132Z,1017.21
2016-10-26T08:55:45.148Z,1017.18
2016-10-26T08:56:45.164Z,1017.25
2016-10-26T08:57:45.181Z,1017.19
2016-10-26T08:58:45.202Z,1017.22
2016-10-26T08:59:45.218Z,1017.18
2016-10-26T09:00:45.243Z,1017.22
2016-10-26T09:01:45.253Z,1017.24
2016-10-26T09:02:45.270Z,1017.22
2016-10-26T09:03:45.287Z,1017.26
2016-10-26T09:04:45.305Z,1017.26
2016-10-26T09:05:45.321Z,1017.26
2016-10-26T09:06:45.338Z,1017.28
2016-10-26T09:07:45.355Z,1017.29
2016-10-26T09:08:45.370Z,1017.31
2016-10-26T09:09:45.391Z,1017.3
2016-10-26T09:10:45.409Z,1017.32
2016-10-26T09:11:45.422Z,1017.31
2016-10-26T09:12:45.442Z,1017.34
2016-10-26T09:13:45.458Z,1017.34
2016-10-26T09:14:45.476Z,1017.34
2016-10-26T09:15:45.492Z,1017.35
2016-10-26T09:16:45.509Z,1017.37
2016-10-26T09:17:45.529Z,1017.32
2016-10-26T09:18:45.544Z,1017.36
2016-10-26T09:19:45.565Z,1017.32
2016-10-26T09:20:45.587Z,1017.34
2016-10-26T09:21:45.596Z,1017.28
2016-10-26T09:22:45.614Z,1017.28
2016-10-26T09:23:45.631Z,1017.25
2016-10-26T09:24:45.652Z,1017.29
2016-10-26T09:25:45.670Z,1017.24
2016-10-26T09:26:45.685Z,1017.2
2016-10-26T09:27:45.700Z,1017.2
2016-10-26T09:28:45.723Z,1017.21
2016-10-26T09:29:45.738Z,1017.2
2016-10-26T09:30:45.753Z,1017.22
2016-10-26T09:31:45.771Z,1017.2
2016-10-26T09:32:45.792Z,1017.18
2016-10-26T09:33:45.810Z,1017.18
2016-10-26T09:34:45.824Z,1017.2
2016-10-26T09:35:45.841Z,1017.23
2016-10-26T09:36:45.864Z,1017.25
2016-10-26T09:37:45.878Z,1017.25
2016-10-26T09:38:45.895Z,1017.21
2016-10-26T09:39:45.914Z,1017.23
2016-10-26T09:40:45.931Z,1017.24
2016-10-26T09:41:45.949Z,1017.23
2016-10-26T09:42:45.967Z,1017.17
2016-10-26T09:43:45.984Z,1017.17
2016-10-26T09:44:45.998Z,1017.18
2016-10-26T09:45:46.017Z,1017.16
2016-10-26T09:46:46.037Z,1017.16
2016-10-26T09:47:46.052Z,1017.16
2016-10-26T09:48:46.071Z,1017.14
2016-10-26T09:49:46.090Z,1017.14
2016-10-26T09:50:46.108Z,1017.13
2016-10-26T09:51:46.121Z,1017.1
2016-10-26T09:52:46.143Z,1017.12
2016-10-26T09:53:46.158Z,1017.1
2016-10-26T09:54:46.179Z,1017.08
2016-10-26T09:55:46.196Z,1017.08
2016-10-26T09:56:46.211Z,1017.05
2016-10-26T09:57:46.230Z,1017
2016-10-26T09:58:46.250Z,1017.01
2016-10-26T09:59:46.263Z,1016.98
2016-10-26T10:00:46.282Z,1016.96
2016-10-26T10:01:46.303Z,1016.95
2016-10-26T10:02:46.317Z,1016.96
2016-10-26T10:03:46.338Z,1016.97
2016-10-26T10:04:46.355Z,1016.94
2016-10-26T10:05:46.375Z,1016.92
2016-10-26T10:06:46.388Z,1016.92
2016-10-26T10:07:46.495Z,1016.94
2016-10-26T10:08:46.427Z,1016.93
2016-10-26T10:09:46.443Z,1016.95
2016-10-26T10:10:46.460Z,1016.96
2016-10-26T10:11:46.480Z,1016.92
2016-10-26T10:12:46.497Z,1016.92
2016-10-26T10:13:46.517Z,1016.88
2016-10-26T10:14:46.536Z,1016.84
2016-10-26T10:15:46.552Z,1016.84
2016-10-26T10:16:46.569Z,1016.8
2016-10-26T10:17:46.586Z,1016.85
2016-10-26T10:18:46.605Z,1016.84
2016-10-26T10:19:46.627Z,1016.87
2016-10-26T10:20:46.640Z,1016.85
2016-10-26T10:21:46.659Z,1016.85
2016-10-26T10:22:46.679Z,1016.86
2016-10-26T10:23:46.695Z,1016.89
2016-10-26T10:24:46.716Z,1016.89
2016-10-26T10:25:46.735Z,1016.94
2016-10-26T10:26:46.748Z,1016.95
2016-10-26T10:27:46.770Z,1016.95
2016-10-26T10:28:46.788Z,1016.95
2016-10-26T10:29:46.805Z,1016.96
2016-10-26T10:30:46.822Z,1016.99
2016-10-26T10:31:46.844Z,1017
2016-10-26T10:32:46.859Z,1017.04
2016-10-26T10:33:46.879Z,1017.06
2016-10-26T10:34:47.047Z,1017.1
2016-10-26T10:35:46.914Z,1017.1
2016-10-26T10:36:46.933Z,1017.1
2016-10-26T10:37:46.951Z,1017.07
2016-10-26T10:38:46.967Z,1017.09
2016-10-26T10:39:47.139Z,1017.11
2016-10-26T10:40:47.004Z,1017.11
2016-10-26T10:41:47.025Z,1017.12
2016-10-26T10:42:47.043Z,1017.1
2016-10-26T10:43:47.061Z,1017.08
2016-10-26T10:44:47.238Z,1017.09
2016-10-26T10:45:47.101Z,1017.06
2016-10-26T10:46:47.116Z,1017.07
2016-10-26T10:47:47.226Z,1017.07
2016-10-26T10:48:47.151Z,1017.09
2016-10-26T10:49:47.172Z,1017.08
2016-10-26T10:50:47.198Z,1017.11
2016-10-26T10:51:47.206Z,1017.11
2016-10-26T10:52:47.226Z,1017.11
2016-10-26T10:53:47.246Z,1017.06
2016-10-26T10:54:47.424Z,1017.07
2016-10-26T10:55:47.280Z,1017.06
2016-10-26T10:56:47.299Z,1017
2016-10-26T10:57:47.319Z,1017.05
2016-10-26T10:58:47.336Z,1017.07
2016-10-26T10:59:47.508Z,1017.1
2016-10-26T11:00:47.377Z,1017.15
2016-10-26T11:01:47.396Z,1017.17
2016-10-26T11:02:47.413Z,1017.17
2016-10-26T11:03:47.432Z,1017.18
2016-10-26T11:04:47.598Z,1017.18
2016-10-26T11:05:47.467Z,1017.18
2016-10-26T11:06:47.489Z,1017.14
2016-10-26T11:07:47.507Z,1017.11
2016-10-26T11:08:47.524Z,1017.09
2016-10-26T11:09:47.545Z,1017.07
2016-10-26T11:10:47.564Z,1017.07
2016-10-26T11:11:47.582Z,1017.1
2016-10-26T11:12:47.599Z,1017.01
2016-10-26T11:13:47.639Z,1017.01
2016-10-26T11:14:47.787Z,1017.02
2016-10-26T11:15:47.655Z,1017.03
2016-10-26T11:16:47.676Z,1017.01
2016-10-26T11:17:47.695Z,1016.99
2016-10-26T11:18:47.715Z,1017.02
2016-10-26T11:19:47.734Z,1016.99
2016-10-26T11:20:47.757Z,1017.02
2016-10-26T11:21:47.772Z,1016.98
2016-10-26T11:22:47.788Z,1017.03
2016-10-26T11:23:47.806Z,1017.02
2016-10-26T11:24:47.839Z,1017.05
2016-10-26T11:25:47.848Z,1017.03
2016-10-26T11:26:47.868Z,1017.06
2016-10-26T11:27:47.889Z,1017.05
2016-10-26T11:28:47.905Z,1017.07
2016-10-26T11:29:47.921Z,1017.07
2016-10-26T11:30:47.945Z,1017.05
2016-10-26T11:31:47.959Z,1017.02
2016-10-26T11:32:47.979Z,1017
2016-10-26T11:33:47.998Z,1017.03
2016-10-26T11:34:48.016Z,1017.04
2016-10-26T11:35:48.036Z,1017.03
2016-10-26T11:36:48.096Z,1017
2016-10-26T11:37:48.115Z,1017.01
2016-10-26T11:38:48.106Z,1017
2016-10-26T11:39:48.112Z,1017.04
2016-10-26T11:40:48.253Z,1017
2016-10-26T11:41:48.263Z,1016.97
2016-10-26T11:42:48.271Z,1016.97
2016-10-26T11:43:48.296Z,1016.99
2016-10-26T11:44:48.307Z,1016.97
2016-10-26T11:45:48.314Z,1016.98
2016-10-26T11:46:48.322Z,1016.98
2016-10-26T11:47:48.332Z,1016.96
2016-10-26T11:48:48.340Z,1016.94
2016-10-26T11:49:48.381Z,1016.94
2016-10-26T11:50:48.387Z,1016.87
2016-10-26T11:51:48.397Z,1016.9
2016-10-26T11:52:48.411Z,1016.88
2016-10-26T11:53:48.408Z,1016.87
2016-10-26T11:54:48.416Z,1016.85
2016-10-26T11:55:48.426Z,1016.9
2016-10-26T11:56:48.441Z,1016.92
2016-10-26T11:57:48.459Z,1016.97
2016-10-26T11:58:48.483Z,1017.01
2016-10-26T11:59:48.499Z,1017.02
2016-10-26T12:00:48.518Z,1017.03
2016-10-26T12:01:48.536Z,1017.02
2016-10-26T12:02:48.558Z,1016.99
2016-10-26T12:03:48.574Z,1017.05
2016-10-26T12:04:48.595Z,1017.02
2016-10-26T12:05:48.617Z,1017.04
2016-10-26T12:06:48.636Z,1017.02
2016-10-26T12:07:48.655Z,1017.06
2016-10-26T12:08:48.676Z,1017.01
2016-10-26T12:09:48.694Z,1017.01